PDT,Max TemperatureF,Mean TemperatureF,Min TemperatureF,Max Dew PointF,MeanDew PointF,Min DewpointF,Max Humidity, Mean Humidity, Min Humidity, Max Sea Level PressureIn, Mean Sea Level PressureIn, Min Sea Level PressureIn, Max VisibilityMiles, Mean VisibilityMiles, Min VisibilityMiles, Max Wind SpeedMPH, Mean Wind SpeedMPH, Max Gust SpeedMPH,PrecipitationIn, CloudCover, Events, WindDirDegrees
2013-9-1,75,63,51,54,47,43,94,61,31,30.29,30.27,30.23,10,10,10,14,4,17,0.00,1,,260
2013-9-2,71,58,46,55,48,45,93,69,38,30.29,30.26,30.22,10,10,10,9,1,,0.02,2,Rain,261
2013-9-3,73,62,50,54,50,45,94,68,38,30.32,30.28,30.25,10,10,10,10,2,21,0.00,4,Rain,316
2013-9-4,71,60,48,59,50,45,100,76,40,30.35,30.32,30.29,10,9,0,13,1,,1.56,2,Rain,60
2013-9-5,73,60,48,59,50,46,100,80,38,30.33,30.31,30.29,10,10,3,8,1,18,0.16,3,Rain,222
2013-9-6,73,60,48,52,48,45,94,67,38,30.32,30.29,30.25,10,10,10,12,2,21,0.00,3,Rain,241
2013-9-7,69,58,48,55,50,45,94,78,43,30.33,30.26,30.23,10,10,1,9,1,17,0.54,3,Rain,258
2013-9-8,71,56,42,52,43,32,100,64,23,30.24,30.20,30.14,10,10,4,9,2,18,0.10,2,Rain,246
2013-9-9,69,58,46,52,46,37,100,70,31,30.20,30.13,30.08,10,10,10,17,3,24,0.02,2,Rain,279
2013-9-10,68,56,44,45,42,39,93,66,40,30.22,30.16,30.10,10,10,10,10,2,,0.00,2,,251
2013-9-11,68,54,41,45,37,34,93,57,28,30.26,30.24,30.21,10,10,10,15,3,23,0.00,0,,260
2013-9-12,71,56,41,45,35,30,81,51,23,30.25,30.22,30.19,10,10,10,13,2,23,0.00,0,,258
2013-9-13,73,56,39,41,34,30,75,47,22,30.21,30.14,30.08,10,10,10,12,2,16,0.00,0,,5
2013-9-14,73,58,42,43,37,36,76,50,25,30.14,30.11,30.07,10,10,10,13,1,17,0.00,1,,35
2013-9-15,77,60,42,45,38,32,76,50,22,30.20,30.15,30.12,10,10,10,12,2,16,0.00,1,,238
2013-9-16,73,57,41,45,37,32,81,49,23,30.22,30.19,30.15,10,10,10,16,2,17,0.00,0,,259
2013-9-17,71,56,41,41,28,10,71,39,9,30.16,30.09,30.04,10,10,10,12,3,20,0.00,0,,235
2013-9-18,69,54,39,30,24,5,57,32,12,30.10,30.04,29.99,10,10,5,13,3,17,0.00,0,,22
2013-9-19,69,52,35,30,25,21,70,38,17,30.16,30.12,30.09,10,10,10,14,3,21,0.00,0,,45
2013-9-20,71,53,35,41,32,21,75,50,18,30.15,30.12,30.09,10,10,10,13,2,16,0.00,0,,241
2013-9-21,64,48,33,37,23,7,76,43,10,30.10,30.04,29.94,10,10,10,16,5,25,0.00,0,,245
2013-9-22,60,48,35,34,20,5,87,39,12,30.12,29.98,29.89,10,10,10,18,9,26,0.00,0,,263
2013-9-23,68,50,33,28,24,19,65,40,18,30.24,30.18,30.12,10,10,10,14,4,,0.00,0,,71
2013-9-24,68,50,32,34,27,21,70,44,19,30.23,30.19,30.11,10,10,10,14,3,18,0.00,0,,259
2013-9-25,60,53,46,37,23,-6,62,33,10,30.10,29.95,29.82,10,10,7,20,11,31,0.00,0,,244
2013-9-26,48,39,28,32,18,-8,87,46,10,30.03,29.88,29.78,10,10,5,18,12,25,0.00,1,,265
2013-9-27,53,40,28,21,16,10,74,43,18,30.25,30.15,30.03,10,10,7,13,3,17,0.00,0,,63
2013-9-28,62,44,26,19,14,5,52,32,18,30.33,30.27,30.23,10,10,10,10,2,,0.00,0,,81
2013-9-29,69,50,30,28,17,7,60,35,10,30.33,30.30,30.27,10,10,1,12,2,20,0.00,0,,278
2013-9-30,71,52,32,30,19,5,69,37,7,30.28,30.21,30.16,10,10,10,9,2,,0.00,0,,249